sensor_id;sensor_type;location;lat;lon;timestamp;P1;durP1;ratioP1;P2;durP2;ratioP2
45338;SDS011;31071;51.478;5.710;2023-04-03T00:00:53;11.65;;;7.30;;
45338;SDS011;31071;51.478;5.710;2023-04-03T00:03:19;10.75;;;7.75;;
45338;SDS011;31071;51.478;5.710;2023-04-03T00:05:45;11.32;;;7.70;;
45338;SDS011;31071;51.478;5.710;2023-04-03T00:08:11;13.63;;;7.90;;
45338;SDS011;31071;51.478;5.710;2023-04-03T00:10:37;11.60;;;7.45;;
45338;SDS011;31071;51.478;5.710;2023-04-03T00:13:03;10.07;;;7.75;;
45338;SDS011;31071;51.478;5.710;2023-04-03T00:15:30;11.05;;;7.93;;
45338;SDS011;31071;51.478;5.710;2023-04-03T00:17:55;12.90;;;8.15;;
45338;SDS011;31071;51.478;5.710;2023-04-03T00:20:21;12.20;;;7.97;;
45338;SDS011;31071;51.478;5.710;2023-04-03T00:22:47;11.73;;;7.43;;
45338;SDS011;31071;51.478;5.710;2023-04-03T00:25:13;11.50;;;7.70;;
45338;SDS011;31071;51.478;5.710;2023-04-03T00:27:39;12.38;;;7.90;;
45338;SDS011;31071;51.478;5.710;2023-04-03T00:30:05;11.80;;;7.03;;
45338;SDS011;31071;51.478;5.710;2023-04-03T00:32:33;13.82;;;7.53;;
45338;SDS011;31071;51.478;5.710;2023-04-03T00:34:58;11.05;;;7.50;;
45338;SDS011;31071;51.478;5.710;2023-04-03T00:37:24;11.88;;;7.72;;
45338;SDS011;31071;51.478;5.710;2023-04-03T00:39:49;13.13;;;7.90;;
45338;SDS011;31071;51.478;5.710;2023-04-03T00:42:15;11.52;;;7.80;;
45338;SDS011;31071;51.478;5.710;2023-04-03T00:47:07;11.10;;;7.55;;
45338;SDS011;31071;51.478;5.710;2023-04-03T00:49:36;13.07;;;7.80;;
45338;SDS011;31071;51.478;5.710;2023-04-03T00:52:03;11.57;;;8.25;;
45338;SDS011;31071;51.478;5.710;2023-04-03T00:54:31;11.80;;;7.72;;
45338;SDS011;31071;51.478;5.710;2023-04-03T00:56:57;11.68;;;7.60;;
45338;SDS011;31071;51.478;5.710;2023-04-03T00:59:27;10.75;;;7.65;;
45338;SDS011;31071;51.478;5.710;2023-04-03T01:01:58;12.38;;;7.78;;
45338;SDS011;31071;51.478;5.710;2023-04-03T01:04:36;12.77;;;8.05;;
45338;SDS011;31071;51.478;5.710;2023-04-03T01:07:14;14.27;;;8.15;;
45338;SDS011;31071;51.478;5.710;2023-04-03T01:09:43;13.07;;;7.88;;
45338;SDS011;31071;51.478;5.710;2023-04-03T01:17:26;11.77;;;7.82;;
45338;SDS011;31071;51.478;5.710;2023-04-03T01:25:42;10.18;;;7.53;;
45338;SDS011;31071;51.478;5.710;2023-04-03T01:28:11;13.80;;;8.65;;
45338;SDS011;31071;51.478;5.710;2023-04-03T01:30:42;10.88;;;7.65;;
45338;SDS011;31071;51.478;5.710;2023-04-03T01:33:12;13.05;;;8.27;;
45338;SDS011;31071;51.478;5.710;2023-04-03T01:35:38;10.55;;;7.75;;
45338;SDS011;31071;51.478;5.710;2023-04-03T01:38:03;9.68;;;7.97;;
45338;SDS011;31071;51.478;5.710;2023-04-03T01:40:29;14.85;;;8.10;;
45338;SDS011;31071;51.478;5.710;2023-04-03T01:42:54;14.30;;;9.10;;
45338;SDS011;31071;51.478;5.710;2023-04-03T01:45:20;12.93;;;8.27;;
45338;SDS011;31071;51.478;5.710;2023-04-03T01:47:45;11.10;;;8.70;;
45338;SDS011;31071;51.478;5.710;2023-04-03T01:50:11;11.52;;;8.75;;
45338;SDS011;31071;51.478;5.710;2023-04-03T01:52:36;14.52;;;9.07;;
45338;SDS011;31071;51.478;5.710;2023-04-03T01:55:02;11.23;;;8.18;;
45338;SDS011;31071;51.478;5.710;2023-04-03T01:57:28;11.73;;;8.82;;
45338;SDS011;31071;51.478;5.710;2023-04-03T01:59:53;15.45;;;10.10;;
45338;SDS011;31071;51.478;5.710;2023-04-03T02:02:19;14.65;;;9.18;;
45338;SDS011;31071;51.478;5.710;2023-04-03T02:04:45;13.65;;;9.25;;
45338;SDS011;31071;51.478;5.710;2023-04-03T02:07:10;12.55;;;9.27;;
45338;SDS011;31071;51.478;5.710;2023-04-03T02:09:36;13.18;;;9.45;;
45338;SDS011;31071;51.478;5.710;2023-04-03T02:12:02;11.95;;;9.13;;
45338;SDS011;31071;51.478;5.710;2023-04-03T02:14:27;13.80;;;9.52;;
45338;SDS011;31071;51.478;5.710;2023-04-03T02:16:53;15.52;;;8.75;;
45338;SDS011;31071;51.478;5.710;2023-04-03T02:19:19;16.70;;;10.10;;
45338;SDS011;31071;51.478;5.710;2023-04-03T02:21:44;14.75;;;9.30;;
45338;SDS011;31071;51.478;5.710;2023-04-03T02:24:10;13.20;;;8.80;;
45338;SDS011;31071;51.478;5.710;2023-04-03T02:26:35;14.77;;;9.20;;
45338;SDS011;31071;51.478;5.710;2023-04-03T02:29:01;15.30;;;8.75;;
45338;SDS011;31071;51.478;5.710;2023-04-03T02:31:27;10.95;;;8.88;;
45338;SDS011;31071;51.478;5.710;2023-04-03T02:33:53;13.50;;;8.77;;
45338;SDS011;31071;51.478;5.710;2023-04-03T02:36:18;13.82;;;9.23;;
45338;SDS011;31071;51.478;5.710;2023-04-03T02:38:44;13.70;;;9.00;;
45338;SDS011;31071;51.478;5.710;2023-04-03T02:41:10;12.43;;;8.98;;
45338;SDS011;31071;51.478;5.710;2023-04-03T02:43:37;12.32;;;9.20;;
45338;SDS011;31071;51.478;5.710;2023-04-03T02:46:03;13.25;;;9.35;;
45338;SDS011;31071;51.478;5.710;2023-04-03T02:48:28;13.23;;;8.57;;
45338;SDS011;31071;51.478;5.710;2023-04-03T02:50:54;13.68;;;9.23;;
45338;SDS011;31071;51.478;5.710;2023-04-03T02:53:20;11.18;;;8.68;;
45338;SDS011;31071;51.478;5.710;2023-04-03T02:55:46;10.73;;;8.70;;
45338;SDS011;31071;51.478;5.710;2023-04-03T02:58:11;13.30;;;9.05;;
45338;SDS011;31071;51.478;5.710;2023-04-03T03:00:37;12.10;;;9.10;;
45338;SDS011;31071;51.478;5.710;2023-04-03T03:03:03;12.50;;;8.68;;
45338;SDS011;31071;51.478;5.710;2023-04-03T03:05:29;12.18;;;8.60;;
45338;SDS011;31071;51.478;5.710;2023-04-03T03:07:55;13.70;;;9.27;;
45338;SDS011;31071;51.478;5.710;2023-04-03T03:10:21;12.20;;;9.05;;
45338;SDS011;31071;51.478;5.710;2023-04-03T03:12:47;11.07;;;8.25;;
45338;SDS011;31071;51.478;5.710;2023-04-03T03:15:12;13.98;;;8.57;;
45338;SDS011;31071;51.478;5.710;2023-04-03T03:17:38;12.05;;;7.82;;
45338;SDS011;31071;51.478;5.710;2023-04-03T03:20:04;16.50;;;8.60;;
45338;SDS011;31071;51.478;5.710;2023-04-03T03:22:30;13.20;;;8.07;;
45338;SDS011;31071;51.478;5.710;2023-04-03T03:24:56;12.00;;;8.13;;
45338;SDS011;31071;51.478;5.710;2023-04-03T03:27:21;11.48;;;7.90;;
45338;SDS011;31071;51.478;5.710;2023-04-03T03:29:47;14.80;;;8.25;;
45338;SDS011;31071;51.478;5.710;2023-04-03T03:32:13;12.23;;;8.13;;
45338;SDS011;31071;51.478;5.710;2023-04-03T03:34:38;11.93;;;8.02;;
45338;SDS011;31071;51.478;5.710;2023-04-03T03:37:04;10.73;;;8.05;;
45338;SDS011;31071;51.478;5.710;2023-04-03T03:39:29;10.02;;;7.90;;
45338;SDS011;31071;51.478;5.710;2023-04-03T03:41:55;12.80;;;7.60;;
45338;SDS011;31071;51.478;5.710;2023-04-03T03:44:21;10.65;;;8.27;;
45338;SDS011;31071;51.478;5.710;2023-04-03T03:46:46;12.02;;;8.00;;
45338;SDS011;31071;51.478;5.710;2023-04-03T03:49:12;13.65;;;8.02;;
45338;SDS011;31071;51.478;5.710;2023-04-03T03:51:38;10.32;;;7.57;;
45338;SDS011;31071;51.478;5.710;2023-04-03T03:54:04;11.55;;;7.70;;
45338;SDS011;31071;51.478;5.710;2023-04-03T03:56:30;11.50;;;7.60;;
45338;SDS011;31071;51.478;5.710;2023-04-03T03:58:56;11.63;;;7.47;;
45338;SDS011;31071;51.478;5.710;2023-04-03T04:01:22;13.48;;;7.78;;
45338;SDS011;31071;51.478;5.710;2023-04-03T04:03:48;11.63;;;7.22;;
45338;SDS011;31071;51.478;5.710;2023-04-03T04:06:14;11.20;;;7.35;;
45338;SDS011;31071;51.478;5.710;2023-04-03T04:08:40;12.85;;;7.57;;
45338;SDS011;31071;51.478;5.710;2023-04-03T04:11:06;9.10;;;7.22;;
45338;SDS011;31071;51.478;5.710;2023-04-03T04:13:31;10.73;;;6.65;;
45338;SDS011;31071;51.478;5.710;2023-04-03T04:15:57;13.13;;;7.13;;
45338;SDS011;31071;51.478;5.710;2023-04-03T04:18:23;11.45;;;7.43;;
45338;SDS011;31071;51.478;5.710;2023-04-03T04:20:49;9.45;;;7.13;;
45338;SDS011;31071;51.478;5.710;2023-04-03T04:23:15;12.13;;;7.15;;
45338;SDS011;31071;51.478;5.710;2023-04-03T04:25:41;11.00;;;6.57;;
45338;SDS011;31071;51.478;5.710;2023-04-03T04:28:10;10.43;;;6.22;;
45338;SDS011;31071;51.478;5.710;2023-04-03T04:30:35;8.52;;;6.85;;
45338;SDS011;31071;51.478;5.710;2023-04-03T04:33:01;12.13;;;6.40;;
45338;SDS011;31071;51.478;5.710;2023-04-03T04:35:26;10.82;;;6.88;;
45338;SDS011;31071;51.478;5.710;2023-04-03T04:37:52;8.45;;;6.47;;
45338;SDS011;31071;51.478;5.710;2023-04-03T04:40:17;13.50;;;6.32;;
45338;SDS011;31071;51.478;5.710;2023-04-03T04:42:43;11.73;;;6.15;;
45338;SDS011;31071;51.478;5.710;2023-04-03T04:45:09;11.27;;;5.63;;
45338;SDS011;31071;51.478;5.710;2023-04-03T04:47:34;9.05;;;6.10;;
45338;SDS011;31071;51.478;5.710;2023-04-03T04:50:00;8.40;;;5.60;;
45338;SDS011;31071;51.478;5.710;2023-04-03T04:52:26;10.52;;;5.95;;
45338;SDS011;31071;51.478;5.710;2023-04-03T04:54:51;8.23;;;5.10;;
45338;SDS011;31071;51.478;5.710;2023-04-03T04:57:17;6.35;;;5.22;;
45338;SDS011;31071;51.478;5.710;2023-04-03T04:59:42;10.15;;;5.50;;
45338;SDS011;31071;51.478;5.710;2023-04-03T05:02:08;8.02;;;4.97;;
45338;SDS011;31071;51.478;5.710;2023-04-03T05:04:33;11.23;;;5.65;;
45338;SDS011;31071;51.478;5.710;2023-04-03T05:06:59;13.40;;;5.07;;
45338;SDS011;31071;51.478;5.710;2023-04-03T05:09:24;8.10;;;5.00;;
45338;SDS011;31071;51.478;5.710;2023-04-03T05:11:50;10.20;;;4.57;;
45338;SDS011;31071;51.478;5.710;2023-04-03T05:14:16;8.25;;;4.53;;
45338;SDS011;31071;51.478;5.710;2023-04-03T05:16:41;10.25;;;4.38;;
45338;SDS011;31071;51.478;5.710;2023-04-03T05:19:07;7.80;;;4.38;;
45338;SDS011;31071;51.478;5.710;2023-04-03T05:21:32;9.35;;;4.25;;
45338;SDS011;31071;51.478;5.710;2023-04-03T05:23:58;8.82;;;4.05;;
45338;SDS011;31071;51.478;5.710;2023-04-03T05:26:27;7.60;;;4.50;;
45338;SDS011;31071;51.478;5.710;2023-04-03T05:28:54;10.23;;;4.32;;
45338;SDS011;31071;51.478;5.710;2023-04-03T05:31:19;6.30;;;3.85;;
45338;SDS011;31071;51.478;5.710;2023-04-03T05:33:45;7.07;;;3.97;;
45338;SDS011;31071;51.478;5.710;2023-04-03T05:36:11;5.35;;;3.60;;
45338;SDS011;31071;51.478;5.710;2023-04-03T05:38:37;9.77;;;3.85;;
45338;SDS011;31071;51.478;5.710;2023-04-03T05:41:04;7.85;;;3.53;;
45338;SDS011;31071;51.478;5.710;2023-04-03T05:43:30;9.82;;;3.75;;
45338;SDS011;31071;51.478;5.710;2023-04-03T05:45:55;8.90;;;3.85;;
45338;SDS011;31071;51.478;5.710;2023-04-03T05:48:21;8.45;;;4.13;;
45338;SDS011;31071;51.478;5.710;2023-04-03T05:50:46;12.80;;;3.80;;
45338;SDS011;31071;51.478;5.710;2023-04-03T05:53:17;8.18;;;3.70;;
45338;SDS011;31071;51.478;5.710;2023-04-03T05:55:47;7.55;;;3.33;;
45338;SDS011;31071;51.478;5.710;2023-04-03T05:58:13;5.65;;;2.97;;
45338;SDS011;31071;51.478;5.710;2023-04-03T06:00:38;10.13;;;3.90;;
45338;SDS011;31071;51.478;5.710;2023-04-03T06:03:05;6.90;;;3.55;;
45338;SDS011;31071;51.478;5.710;2023-04-03T06:05:31;10.88;;;3.33;;
45338;SDS011;31071;51.478;5.710;2023-04-03T06:07:56;9.18;;;3.60;;
45338;SDS011;31071;51.478;5.710;2023-04-03T06:10:22;8.25;;;3.30;;
45338;SDS011;31071;51.478;5.710;2023-04-03T06:12:48;7.00;;;3.38;;
45338;SDS011;31071;51.478;5.710;2023-04-03T06:15:15;6.00;;;3.25;;
45338;SDS011;31071;51.478;5.710;2023-04-03T06:17:41;10.38;;;3.33;;
45338;SDS011;31071;51.478;5.710;2023-04-03T06:20:07;7.57;;;3.30;;
45338;SDS011;31071;51.478;5.710;2023-04-03T06:22:34;5.57;;;3.03;;
45338;SDS011;31071;51.478;5.710;2023-04-03T06:25:00;6.85;;;3.20;;
45338;SDS011;31071;51.478;5.710;2023-04-03T06:27:25;8.32;;;3.38;;
45338;SDS011;31071;51.478;5.710;2023-04-03T06:29:52;5.80;;;2.92;;
45338;SDS011;31071;51.478;5.710;2023-04-03T06:32:17;7.68;;;3.20;;
45338;SDS011;31071;51.478;5.710;2023-04-03T06:34:43;4.45;;;2.70;;
45338;SDS011;31071;51.478;5.710;2023-04-03T06:37:14;7.95;;;3.03;;
45338;SDS011;31071;51.478;5.710;2023-04-03T06:39:41;7.50;;;2.95;;
45338;SDS011;31071;51.478;5.710;2023-04-03T06:42:07;4.78;;;2.72;;
45338;SDS011;31071;51.478;5.710;2023-04-03T06:44:32;7.18;;;3.00;;
45338;SDS011;31071;51.478;5.710;2023-04-03T06:46:59;8.05;;;2.72;;
45338;SDS011;31071;51.478;5.710;2023-04-03T06:49:25;7.10;;;2.80;;
45338;SDS011;31071;51.478;5.710;2023-04-03T06:51:51;9.27;;;2.40;;
45338;SDS011;31071;51.478;5.710;2023-04-03T06:54:16;6.70;;;2.50;;
45338;SDS011;31071;51.478;5.710;2023-04-03T06:56:42;8.77;;;2.85;;
45338;SDS011;31071;51.478;5.710;2023-04-03T06:59:09;10.40;;;2.60;;
45338;SDS011;31071;51.478;5.710;2023-04-03T07:01:35;4.57;;;2.78;;
45338;SDS011;31071;51.478;5.710;2023-04-03T07:04:00;4.78;;;2.00;;
45338;SDS011;31071;51.478;5.710;2023-04-03T07:06:26;7.40;;;2.75;;
45338;SDS011;31071;51.478;5.710;2023-04-03T07:08:52;5.93;;;2.25;;
45338;SDS011;31071;51.478;5.710;2023-04-03T07:11:21;3.97;;;2.05;;
45338;SDS011;31071;51.478;5.710;2023-04-03T07:13:47;6.25;;;2.25;;
45338;SDS011;31071;51.478;5.710;2023-04-03T07:16:13;5.40;;;2.50;;
45338;SDS011;31071;51.478;5.710;2023-04-03T07:18:38;5.78;;;2.20;;
45338;SDS011;31071;51.478;5.710;2023-04-03T07:21:04;5.10;;;2.00;;
45338;SDS011;31071;51.478;5.710;2023-04-03T07:23:30;5.88;;;2.20;;
45338;SDS011;31071;51.478;5.710;2023-04-03T07:25:55;4.78;;;2.13;;
45338;SDS011;31071;51.478;5.710;2023-04-03T07:28:21;4.78;;;2.30;;
45338;SDS011;31071;51.478;5.710;2023-04-03T07:30:51;7.82;;;2.08;;
45338;SDS011;31071;51.478;5.710;2023-04-03T07:33:19;5.22;;;2.40;;
45338;SDS011;31071;51.478;5.710;2023-04-03T07:35:46;7.53;;;2.75;;
45338;SDS011;31071;51.478;5.710;2023-04-03T07:38:12;6.78;;;2.40;;
45338;SDS011;31071;51.478;5.710;2023-04-03T07:40:38;5.47;;;2.00;;
45338;SDS011;31071;51.478;5.710;2023-04-03T07:43:04;3.72;;;1.80;;
45338;SDS011;31071;51.478;5.710;2023-04-03T07:45:30;4.75;;;2.00;;
45338;SDS011;31071;51.478;5.710;2023-04-03T07:47:56;9.68;;;2.00;;
45338;SDS011;31071;51.478;5.710;2023-04-03T07:50:22;4.82;;;1.60;;
45338;SDS011;31071;51.478;5.710;2023-04-03T07:52:48;7.35;;;2.30;;
45338;SDS011;31071;51.478;5.710;2023-04-03T07:55:15;4.85;;;1.88;;
45338;SDS011;31071;51.478;5.710;2023-04-03T07:57:41;4.80;;;1.80;;
45338;SDS011;31071;51.478;5.710;2023-04-03T08:00:07;8.85;;;2.35;;
45338;SDS011;31071;51.478;5.710;2023-04-03T08:02:33;5.68;;;1.70;;
45338;SDS011;31071;51.478;5.710;2023-04-03T08:04:59;5.72;;;1.75;;
45338;SDS011;31071;51.478;5.710;2023-04-03T08:07:25;7.95;;;1.88;;
45338;SDS011;31071;51.478;5.710;2023-04-03T08:09:51;4.38;;;1.80;;
45338;SDS011;31071;51.478;5.710;2023-04-03T08:12:17;5.65;;;1.60;;
45338;SDS011;31071;51.478;5.710;2023-04-03T08:14:43;4.93;;;1.90;;
45338;SDS011;31071;51.478;5.710;2023-04-03T08:17:08;6.57;;;1.90;;
45338;SDS011;31071;51.478;5.710;2023-04-03T08:19:38;4.72;;;1.70;;
45338;SDS011;31071;51.478;5.710;2023-04-03T08:22:04;4.50;;;1.70;;
45338;SDS011;31071;51.478;5.710;2023-04-03T08:24:30;6.03;;;1.92;;
45338;SDS011;31071;51.478;5.710;2023-04-03T08:26:59;4.10;;;1.75;;
45338;SDS011;31071;51.478;5.710;2023-04-03T08:29:25;3.00;;;1.23;;
45338;SDS011;31071;51.478;5.710;2023-04-03T08:31:51;3.45;;;1.40;;
45338;SDS011;31071;51.478;5.710;2023-04-03T08:34:17;6.93;;;1.40;;
45338;SDS011;31071;51.478;5.710;2023-04-03T08:36:44;3.05;;;1.15;;
45338;SDS011;31071;51.478;5.710;2023-04-03T08:39:10;6.47;;;1.45;;
45338;SDS011;31071;51.478;5.710;2023-04-03T08:41:37;4.55;;;1.73;;
45338;SDS011;31071;51.478;5.710;2023-04-03T08:44:18;4.25;;;1.42;;
45338;SDS011;31071;51.478;5.710;2023-04-03T08:49:26;5.40;;;1.60;;
45338;SDS011;31071;51.478;5.710;2023-04-03T08:51:56;2.65;;;1.33;;
45338;SDS011;31071;51.478;5.710;2023-04-03T08:54:28;3.83;;;2.65;;
45338;SDS011;31071;51.478;5.710;2023-04-03T08:56:58;3.53;;;1.38;;
45338;SDS011;31071;51.478;5.710;2023-04-03T08:59:29;3.65;;;1.50;;
45338;SDS011;31071;51.478;5.710;2023-04-03T09:01:59;2.28;;;1.35;;
45338;SDS011;31071;51.478;5.710;2023-04-03T09:04:30;3.97;;;1.20;;
45338;SDS011;31071;51.478;5.710;2023-04-03T09:06:59;2.17;;;1.08;;
45338;SDS011;31071;51.478;5.710;2023-04-03T09:09:33;2.00;;;1.10;;
45338;SDS011;31071;51.478;5.710;2023-04-03T09:12:19;4.07;;;1.55;;
45338;SDS011;31071;51.478;5.710;2023-04-03T09:14:57;2.75;;;1.20;;
45338;SDS011;31071;51.478;5.710;2023-04-03T09:23:32;2.67;;;1.00;;
45338;SDS011;31071;51.478;5.710;2023-04-03T09:26:06;1.20;;;0.70;;
45338;SDS011;31071;51.478;5.710;2023-04-03T09:28:39;2.45;;;0.82;;
45338;SDS011;31071;51.478;5.710;2023-04-03T09:31:26;2.85;;;1.27;;
45338;SDS011;31071;51.478;5.710;2023-04-03T09:33:57;2.28;;;0.90;;
45338;SDS011;31071;51.478;5.710;2023-04-03T09:36:43;1.60;;;0.90;;
45338;SDS011;31071;51.478;5.710;2023-04-03T09:39:17;4.32;;;1.10;;
45338;SDS011;31071;51.478;5.710;2023-04-03T09:41:55;1.63;;;0.80;;
45338;SDS011;31071;51.478;5.710;2023-04-03T09:44:40;2.88;;;1.00;;
45338;SDS011;31071;51.478;5.710;2023-04-03T09:47:25;2.28;;;0.88;;
45338;SDS011;31071;51.478;5.710;2023-04-03T09:52:39;2.08;;;1.17;;
45338;SDS011;31071;51.478;5.710;2023-04-03T09:55:07;2.13;;;1.02;;
45338;SDS011;31071;51.478;5.710;2023-04-03T09:57:39;1.38;;;0.90;;
45338;SDS011;31071;51.478;5.710;2023-04-03T10:00:05;3.03;;;1.00;;
45338;SDS011;31071;51.478;5.710;2023-04-03T10:02:39;2.10;;;0.70;;
45338;SDS011;31071;51.478;5.710;2023-04-03T10:05:27;1.35;;;0.68;;
45338;SDS011;31071;51.478;5.710;2023-04-03T10:10:34;3.45;;;0.82;;
45338;SDS011;31071;51.478;5.710;2023-04-03T10:13:09;1.17;;;0.80;;
45338;SDS011;31071;51.478;5.710;2023-04-03T10:15:44;2.75;;;1.05;;
45338;SDS011;31071;51.478;5.710;2023-04-03T10:18:28;1.88;;;0.70;;
45338;SDS011;31071;51.478;5.710;2023-04-03T10:21:10;1.52;;;0.73;;
45338;SDS011;31071;51.478;5.710;2023-04-03T10:23:44;2.08;;;0.75;;
45338;SDS011;31071;51.478;5.710;2023-04-03T10:29:09;0.80;;;0.60;;
45338;SDS011;31071;51.478;5.710;2023-04-03T10:40:15;4.13;;;0.80;;
45338;SDS011;31071;51.478;5.710;2023-04-03T10:42:55;1.58;;;0.63;;
45338;SDS011;31071;51.478;5.710;2023-04-03T10:45:57;0.87;;;0.57;;
45338;SDS011;31071;51.478;5.710;2023-04-03T10:51:36;2.03;;;0.75;;
45338;SDS011;31071;51.478;5.710;2023-04-03T10:56:53;1.92;;;0.88;;
45338;SDS011;31071;51.478;5.710;2023-04-03T11:00:05;2.08;;;0.70;;
45338;SDS011;31071;51.478;5.710;2023-04-03T11:02:25;2.22;;;0.60;;
45338;SDS011;31071;51.478;5.710;2023-04-03T11:07:52;1.05;;;0.60;;
45338;SDS011;31071;51.478;5.710;2023-04-03T11:10:21;1.40;;;0.65;;
45338;SDS011;31071;51.478;5.710;2023-04-03T11:12:52;2.97;;;0.98;;
45338;SDS011;31071;51.478;5.710;2023-04-03T11:15:26;1.83;;;0.80;;
45338;SDS011;31071;51.478;5.710;2023-04-03T11:18:06;4.15;;;0.80;;
45338;SDS011;31071;51.478;5.710;2023-04-03T11:20:37;0.95;;;0.55;;
45338;SDS011;31071;51.478;5.710;2023-04-03T11:23:52;1.08;;;0.70;;
45338;SDS011;31071;51.478;5.710;2023-04-03T11:26:00;1.52;;;0.75;;
45338;SDS011;31071;51.478;5.710;2023-04-03T11:28:37;2.40;;;0.88;;
45338;SDS011;31071;51.478;5.710;2023-04-03T11:31:25;2.47;;;0.80;;
45338;SDS011;31071;51.478;5.710;2023-04-03T11:36:43;1.25;;;0.80;;
45338;SDS011;31071;51.478;5.710;2023-04-03T11:42:13;2.50;;;0.88;;
45338;SDS011;31071;51.478;5.710;2023-04-03T11:44:50;3.10;;;0.80;;
45338;SDS011;31071;51.478;5.710;2023-04-03T11:50:44;1.02;;;0.80;;
45338;SDS011;31071;51.478;5.710;2023-04-03T12:05:51;2.22;;;0.90;;
45338;SDS011;31071;51.478;5.710;2023-04-03T12:08:27;4.68;;;1.05;;
45338;SDS011;31071;51.478;5.710;2023-04-03T12:16:20;3.35;;;1.00;;
45338;SDS011;31071;51.478;5.710;2023-04-03T12:21:21;1.83;;;0.90;;
45338;SDS011;31071;51.478;5.710;2023-04-03T12:29:23;2.88;;;1.48;;
45338;SDS011;31071;51.478;5.710;2023-04-03T12:38:16;3.03;;;1.17;;
45338;SDS011;31071;51.478;5.710;2023-04-03T12:40:57;1.00;;;0.90;;
45338;SDS011;31071;51.478;5.710;2023-04-03T12:48:37;2.75;;;1.27;;
45338;SDS011;31071;51.478;5.710;2023-04-03T12:51:09;3.63;;;1.17;;
45338;SDS011;31071;51.478;5.710;2023-04-03T12:53:40;4.85;;;1.10;;
45338;SDS011;31071;51.478;5.710;2023-04-03T12:56:21;2.03;;;1.20;;
45338;SDS011;31071;51.478;5.710;2023-04-03T12:58:49;2.13;;;1.00;;
45338;SDS011;31071;51.478;5.710;2023-04-03T13:01:17;3.22;;;1.13;;
45338;SDS011;31071;51.478;5.710;2023-04-03T13:03:53;2.15;;;1.27;;
45338;SDS011;31071;51.478;5.710;2023-04-03T13:08:58;2.63;;;1.10;;
45338;SDS011;31071;51.478;5.710;2023-04-03T13:11:27;1.92;;;1.02;;
45338;SDS011;31071;51.478;5.710;2023-04-03T13:14:02;2.05;;;1.40;;
45338;SDS011;31071;51.478;5.710;2023-04-03T13:16:30;2.07;;;1.30;;
45338;SDS011;31071;51.478;5.710;2023-04-03T13:18:57;2.95;;;1.05;;
45338;SDS011;31071;51.478;5.710;2023-04-03T13:21:27;5.05;;;1.20;;
45338;SDS011;31071;51.478;5.710;2023-04-03T13:23:56;3.42;;;1.10;;
45338;SDS011;31071;51.478;5.710;2023-04-03T13:26:24;2.33;;;1.10;;
45338;SDS011;31071;51.478;5.710;2023-04-03T13:28:53;2.83;;;1.33;;
45338;SDS011;31071;51.478;5.710;2023-04-03T13:31:27;4.90;;;1.20;;
45338;SDS011;31071;51.478;5.710;2023-04-03T13:34:18;3.05;;;1.20;;
45338;SDS011;31071;51.478;5.710;2023-04-03T13:36:45;2.72;;;1.20;;
45338;SDS011;31071;51.478;5.710;2023-04-03T13:39:22;2.75;;;1.38;;
45338;SDS011;31071;51.478;5.710;2023-04-03T13:41:59;2.38;;;1.10;;
45338;SDS011;31071;51.478;5.710;2023-04-03T13:44:29;2.65;;;1.30;;
45338;SDS011;31071;51.478;5.710;2023-04-03T13:46:59;3.17;;;1.30;;
45338;SDS011;31071;51.478;5.710;2023-04-03T13:50:11;3.10;;;1.52;;
45338;SDS011;31071;51.478;5.710;2023-04-03T13:52:47;2.65;;;1.30;;
45338;SDS011;31071;51.478;5.710;2023-04-03T13:55:25;5.05;;;1.20;;
45338;SDS011;31071;51.478;5.710;2023-04-03T14:03:19;2.15;;;1.20;;
45338;SDS011;31071;51.478;5.710;2023-04-03T14:05:57;3.47;;;1.20;;
45338;SDS011;31071;51.478;5.710;2023-04-03T14:08:23;2.65;;;1.27;;
45338;SDS011;31071;51.478;5.710;2023-04-03T14:10:49;1.55;;;1.30;;
45338;SDS011;31071;51.478;5.710;2023-04-03T14:13:16;4.95;;;1.50;;
45338;SDS011;31071;51.478;5.710;2023-04-03T14:15:45;3.65;;;1.50;;
45338;SDS011;31071;51.478;5.710;2023-04-03T14:18:13;1.75;;;1.10;;
45338;SDS011;31071;51.478;5.710;2023-04-03T14:20:41;3.88;;;1.40;;
45338;SDS011;31071;51.478;5.710;2023-04-03T14:23:07;2.92;;;1.27;;
45338;SDS011;31071;51.478;5.710;2023-04-03T14:25:33;3.53;;;1.27;;
45338;SDS011;31071;51.478;5.710;2023-04-03T14:27:59;3.38;;;1.30;;
45338;SDS011;31071;51.478;5.710;2023-04-03T14:30:27;2.70;;;1.50;;
45338;SDS011;31071;51.478;5.710;2023-04-03T14:32:56;2.75;;;1.45;;
45338;SDS011;31071;51.478;5.710;2023-04-03T14:35:22;2.40;;;1.00;;
45338;SDS011;31071;51.478;5.710;2023-04-03T14:37:48;3.22;;;1.20;;
45338;SDS011;31071;51.478;5.710;2023-04-03T14:40:17;2.72;;;1.20;;
45338;SDS011;31071;51.478;5.710;2023-04-03T14:42:48;2.50;;;1.17;;
45338;SDS011;31071;51.478;5.710;2023-04-03T14:45:14;4.20;;;1.48;;
45338;SDS011;31071;51.478;5.710;2023-04-03T14:47:43;2.40;;;1.50;;
45338;SDS011;31071;51.478;5.710;2023-04-03T14:50:17;2.95;;;1.10;;
45338;SDS011;31071;51.478;5.710;2023-04-03T14:52:46;2.20;;;1.23;;
45338;SDS011;31071;51.478;5.710;2023-04-03T14:55:12;3.28;;;1.52;;
45338;SDS011;31071;51.478;5.710;2023-04-03T14:57:40;3.53;;;1.52;;
45338;SDS011;31071;51.478;5.710;2023-04-03T15:00:16;2.92;;;1.23;;
45338;SDS011;31071;51.478;5.710;2023-04-03T15:02:43;2.90;;;1.23;;
45338;SDS011;31071;51.478;5.710;2023-04-03T15:05:10;1.88;;;1.10;;
45338;SDS011;31071;51.478;5.710;2023-04-03T15:07:45;2.78;;;1.15;;
45338;SDS011;31071;51.478;5.710;2023-04-03T15:12:45;2.65;;;1.40;;
45338;SDS011;31071;51.478;5.710;2023-04-03T15:15:12;2.15;;;1.42;;
45338;SDS011;31071;51.478;5.710;2023-04-03T15:17:38;2.25;;;1.30;;
45338;SDS011;31071;51.478;5.710;2023-04-03T15:20:09;2.33;;;1.40;;
45338;SDS011;31071;51.478;5.710;2023-04-03T15:22:38;2.92;;;1.33;;
45338;SDS011;31071;51.478;5.710;2023-04-03T15:25:05;3.95;;;1.23;;
45338;SDS011;31071;51.478;5.710;2023-04-03T15:27:31;2.20;;;1.15;;
45338;SDS011;31071;51.478;5.710;2023-04-03T15:32:48;3.63;;;1.23;;
45338;SDS011;31071;51.478;5.710;2023-04-03T15:35:20;1.70;;;1.30;;
45338;SDS011;31071;51.478;5.710;2023-04-03T15:37:48;2.47;;;1.15;;
45338;SDS011;31071;51.478;5.710;2023-04-03T15:40:14;2.08;;;1.30;;
45338;SDS011;31071;51.478;5.710;2023-04-03T15:42:40;3.03;;;1.40;;
45338;SDS011;31071;51.478;5.710;2023-04-03T15:45:06;1.60;;;1.30;;
45338;SDS011;31071;51.478;5.710;2023-04-03T15:47:32;3.83;;;1.20;;
45338;SDS011;31071;51.478;5.710;2023-04-03T15:49:58;3.90;;;1.10;;
45338;SDS011;31071;51.478;5.710;2023-04-03T15:52:24;2.35;;;1.20;;
45338;SDS011;31071;51.478;5.710;2023-04-03T15:54:49;4.47;;;1.45;;
45338;SDS011;31071;51.478;5.710;2023-04-03T15:57:15;3.85;;;1.38;;
45338;SDS011;31071;51.478;5.710;2023-04-03T15:59:41;3.95;;;1.20;;
45338;SDS011;31071;51.478;5.710;2023-04-03T16:02:07;4.50;;;1.65;;
45338;SDS011;31071;51.478;5.710;2023-04-03T16:04:37;3.08;;;1.35;;
45338;SDS011;31071;51.478;5.710;2023-04-03T16:07:03;2.85;;;1.10;;
45338;SDS011;31071;51.478;5.710;2023-04-03T16:09:29;4.75;;;1.25;;
45338;SDS011;31071;51.478;5.710;2023-04-03T16:11:56;3.72;;;1.35;;
45338;SDS011;31071;51.478;5.710;2023-04-03T16:14:22;3.97;;;1.30;;
45338;SDS011;31071;51.478;5.710;2023-04-03T16:16:48;3.05;;;1.30;;
45338;SDS011;31071;51.478;5.710;2023-04-03T16:19:13;2.38;;;1.10;;
45338;SDS011;31071;51.478;5.710;2023-04-03T16:21:39;5.47;;;1.70;;
45338;SDS011;31071;51.478;5.710;2023-04-03T16:24:05;4.88;;;1.60;;
45338;SDS011;31071;51.478;5.710;2023-04-03T16:26:31;5.53;;;1.40;;
45338;SDS011;31071;51.478;5.710;2023-04-03T16:28:56;2.53;;;1.20;;
45338;SDS011;31071;51.478;5.710;2023-04-03T16:31:22;2.47;;;1.30;;
45338;SDS011;31071;51.478;5.710;2023-04-03T16:33:49;5.13;;;1.58;;
45338;SDS011;31071;51.478;5.710;2023-04-03T16:36:14;5.47;;;1.50;;
45338;SDS011;31071;51.478;5.710;2023-04-03T16:38:40;5.90;;;1.30;;